sensor_id;sensor_type;location;lat;lon;timestamp;pressure;altitude;pressure_sealevel;temperature;humidity
65190;BME280;51777;53.570;9.984;2023-04-03T00:00:44;103073.69;;;2.60;100.00
65190;BME280;51777;53.570;9.984;2023-04-03T00:03:09;103079.63;;;2.61;100.00
65190;BME280;51777;53.570;9.984;2023-04-03T00:05:35;103079.63;;;2.61;100.00
65190;BME280;51777;53.570;9.984;2023-04-03T00:08:00;103074.47;;;2.62;100.00
65190;BME280;51777;53.570;9.984;2023-04-03T00:10:27;103082.09;;;2.64;100.00
65190;BME280;51777;53.570;9.984;2023-04-03T00:12:53;103081.28;;;2.63;100.00
65190;BME280;51777;53.570;9.984;2023-04-03T00:15:19;103087.13;;;2.67;100.00
65190;BME280;51777;53.570;9.984;2023-04-03T00:17:44;103083.88;;;2.62;100.00
65190;BME280;51777;53.570;9.984;2023-04-03T00:20:11;103087.34;;;2.58;100.00
65190;BME280;51777;53.570;9.984;2023-04-03T00:22:36;103087.41;;;2.55;100.00
65190;BME280;51777;53.570;9.984;2023-04-03T00:25:03;103086.66;;;2.51;100.00
65190;BME280;51777;53.570;9.984;2023-04-03T00:27:28;103088.41;;;2.49;100.00
65190;BME280;51777;53.570;9.984;2023-04-03T00:29:54;103090.22;;;2.44;100.00
65190;BME280;51777;53.570;9.984;2023-04-03T00:32:19;103087.66;;;2.44;100.00
65190;BME280;51777;53.570;9.984;2023-04-03T00:34:44;103085.19;;;2.41;100.00
65190;BME280;51777;53.570;9.984;2023-04-03T00:37:10;103086.88;;;2.42;100.00
65190;BME280;51777;53.570;9.984;2023-04-03T00:39:35;103086.16;;;2.37;100.00
65190;BME280;51777;53.570;9.984;2023-04-03T00:42:01;103091.13;;;2.42;100.00
65190;BME280;51777;53.570;9.984;2023-04-03T00:46:58;103089.50;;;2.39;100.00
65190;BME280;51777;53.570;9.984;2023-04-03T00:49:24;103094.63;;;2.38;100.00
65190;BME280;51777;53.570;9.984;2023-04-03T00:51:49;103098.06;;;2.35;100.00
65190;BME280;51777;53.570;9.984;2023-04-03T00:54:16;103091.25;;;2.35;100.00
65190;BME280;51777;53.570;9.984;2023-04-03T00:56:42;103094.69;;;2.34;100.00
65190;BME280;51777;53.570;9.984;2023-04-03T00:59:21;103095.53;;;2.35;100.00
65190;BME280;51777;53.570;9.984;2023-04-03T01:01:51;103087.91;;;2.33;100.00
65190;BME280;51777;53.570;9.984;2023-04-03T01:04:43;103098.13;;;2.33;100.00
65190;BME280;51777;53.570;9.984;2023-04-03T01:07:20;103098.06;;;2.35;100.00
65190;BME280;51777;53.570;9.984;2023-04-03T01:09:48;103098.97;;;2.34;100.00
65190;BME280;51777;53.570;9.984;2023-04-03T01:12:21;103100.63;;;2.35;100.00
65190;BME280;51777;53.570;9.984;2023-04-03T01:14:52;103100.72;;;2.32;100.00
65190;BME280;51777;53.570;9.984;2023-04-03T01:17:38;103093.16;;;2.27;100.00
65190;BME280;51777;53.570;9.984;2023-04-03T01:22:56;103101.81;;;2.20;100.00
65190;BME280;51777;53.570;9.984;2023-04-03T01:25:24;103098.47;;;2.18;100.00
65190;BME280;51777;53.570;9.984;2023-04-03T01:27:49;103095.91;;;2.18;100.00
65190;BME280;51777;53.570;9.984;2023-04-03T01:30:18;103091.81;;;2.11;100.00
65190;BME280;51777;53.570;9.984;2023-04-03T01:32:43;103099.47;;;2.11;100.00
65190;BME280;51777;53.570;9.984;2023-04-03T01:35:09;103098.66;;;2.09;100.00
65190;BME280;51777;53.570;9.984;2023-04-03T01:37:35;103093.63;;;2.06;100.00
65190;BME280;51777;53.570;9.984;2023-04-03T01:40:01;103088.53;;;2.06;100.00
65190;BME280;51777;53.570;9.984;2023-04-03T01:42:27;103091.91;;;2.06;100.00
65190;BME280;51777;53.570;9.984;2023-04-03T01:44:52;103086.03;;;2.03;100.00
65190;BME280;51777;53.570;9.984;2023-04-03T01:47:18;103088.59;;;2.03;100.00
65190;BME280;51777;53.570;9.984;2023-04-03T01:49:43;103091.97;;;2.03;100.00
65190;BME280;51777;53.570;9.984;2023-04-03T01:52:09;103091.94;;;2.05;100.00
65190;BME280;51777;53.570;9.984;2023-04-03T01:54:34;103091.22;;;2.00;100.00
65190;BME280;51777;53.570;9.984;2023-04-03T01:56:59;103091.25;;;1.97;100.00
65190;BME280;51777;53.570;9.984;2023-04-03T01:59:25;103100.63;;;1.96;100.00
65190;BME280;51777;53.570;9.984;2023-04-03T02:01:50;103098.97;;;1.94;100.00
65190;BME280;51777;53.570;9.984;2023-04-03T02:04:16;103100.72;;;1.92;100.00
65190;BME280;51777;53.570;9.984;2023-04-03T02:06:41;103101.63;;;1.89;100.00
65190;BME280;51777;53.570;9.984;2023-04-03T02:09:07;103095.72;;;1.86;100.00
65190;BME280;51777;53.570;9.984;2023-04-03T02:11:32;103102.59;;;1.84;100.00
65190;BME280;51777;53.570;9.984;2023-04-03T02:13:57;103103.50;;;1.81;100.00
65190;BME280;51777;53.570;9.984;2023-04-03T02:16:23;103099.22;;;1.82;100.00
65190;BME280;51777;53.570;9.984;2023-04-03T02:18:48;103099.22;;;1.82;100.00
65190;BME280;51777;53.570;9.984;2023-04-03T02:21:14;103099.22;;;1.82;100.00
65190;BME280;51777;53.570;9.984;2023-04-03T02:23:39;103095.81;;;1.83;100.00
65190;BME280;51777;53.570;9.984;2023-04-03T02:26:11;103102.66;;;1.81;100.00
65190;BME280;51777;53.570;9.984;2023-04-03T02:28:37;103095.91;;;1.78;100.00
65190;BME280;51777;53.570;9.984;2023-04-03T02:31:03;103104.47;;;1.75;100.00
65190;BME280;51777;53.570;9.984;2023-04-03T02:33:29;103112.16;;;1.74;100.00
65190;BME280;51777;53.570;9.984;2023-04-03T02:35:56;103113.91;;;1.70;100.00
65190;BME280;51777;53.570;9.984;2023-04-03T02:38:22;103108.00;;;1.68;100.00
65190;BME280;51777;53.570;9.984;2023-04-03T02:40:48;103114.84;;;1.66;100.00
65190;BME280;51777;53.570;9.984;2023-04-03T02:43:13;103108.06;;;1.65;100.00
65190;BME280;51777;53.570;9.984;2023-04-03T02:45:39;103117.44;;;1.65;100.00
65190;BME280;51777;53.570;9.984;2023-04-03T02:48:05;103114.84;;;1.66;100.00
65190;BME280;51777;53.570;9.984;2023-04-03T02:50:31;103124.19;;;1.66;100.00
65190;BME280;51777;53.570;9.984;2023-04-03T02:52:57;103111.47;;;1.64;100.00
65190;BME280;51777;53.570;9.984;2023-04-03T02:55:22;103113.19;;;1.64;100.00
65190;BME280;51777;53.570;9.984;2023-04-03T02:57:47;103111.56;;;1.61;100.00
65190;BME280;51777;53.570;9.984;2023-04-03T03:00:13;103117.50;;;1.60;100.00
65190;BME280;51777;53.570;9.984;2023-04-03T03:02:39;103113.25;;;1.59;100.00
65190;BME280;51777;53.570;9.984;2023-04-03T03:05:05;103112.47;;;1.57;100.00
65190;BME280;51777;53.570;9.984;2023-04-03T03:07:31;103118.38;;;1.59;100.00
65190;BME280;51777;53.570;9.984;2023-04-03T03:09:56;103106.53;;;1.57;100.00
65190;BME280;51777;53.570;9.984;2023-04-03T03:12:21;103112.50;;;1.56;100.00
65190;BME280;51777;53.570;9.984;2023-04-03T03:14:48;103124.41;;;1.55;100.00
65190;BME280;51777;53.570;9.984;2023-04-03T03:17:13;103115.03;;;1.56;100.00
65190;BME280;51777;53.570;9.984;2023-04-03T03:19:39;103118.44;;;1.56;100.00
65190;BME280;51777;53.570;9.984;2023-04-03T03:22:04;103113.38;;;1.55;100.00
65190;BME280;51777;53.570;9.984;2023-04-03T03:24:30;103117.63;;;1.54;100.00
65190;BME280;51777;53.570;9.984;2023-04-03T03:26:55;103120.25;;;1.51;100.00
65190;BME280;51777;53.570;9.984;2023-04-03T03:29:21;103112.66;;;1.46;100.00
65190;BME280;51777;53.570;9.984;2023-04-03T03:31:46;103116.00;;;1.48;100.00
65190;BME280;51777;53.570;9.984;2023-04-03T03:34:12;103111.81;;;1.46;100.00
65190;BME280;51777;53.570;9.984;2023-04-03T03:36:38;103110.16;;;1.43;100.00
65190;BME280;51777;53.570;9.984;2023-04-03T03:39:03;103117.00;;;1.41;100.00
65190;BME280;51777;53.570;9.984;2023-04-03T03:41:29;103109.44;;;1.38;100.00
65190;BME280;51777;53.570;9.984;2023-04-03T03:43:54;103122.97;;;1.40;100.00
65190;BME280;51777;53.570;9.984;2023-04-03T03:46:20;103115.25;;;1.43;100.00
65190;BME280;51777;53.570;9.984;2023-04-03T03:48:45;103115.31;;;1.42;100.00
65190;BME280;51777;53.570;9.984;2023-04-03T03:51:11;103122.91;;;1.43;100.00
65190;BME280;51777;53.570;9.984;2023-04-03T03:53:36;103121.22;;;1.44;100.00
65190;BME280;51777;53.570;9.984;2023-04-03T03:56:02;103122.91;;;1.43;100.00
65190;BME280;51777;53.570;9.984;2023-04-03T03:58:27;103129.69;;;1.44;100.00
65190;BME280;51777;53.570;9.984;2023-04-03T04:00:53;103117.84;;;1.42;100.00
65190;BME280;51777;53.570;9.984;2023-04-03T04:03:18;103122.97;;;1.40;100.00
65190;BME280;51777;53.570;9.984;2023-04-03T04:05:44;103120.44;;;1.40;100.00
65190;BME280;51777;53.570;9.984;2023-04-03T04:08:09;103120.47;;;1.39;100.00
65190;BME280;51777;53.570;9.984;2023-04-03T04:10:36;103120.50;;;1.36;100.00
65190;BME280;51777;53.570;9.984;2023-04-03T04:13:02;103115.50;;;1.31;100.00
65190;BME280;51777;53.570;9.984;2023-04-03T04:15:28;103118.94;;;1.29;100.00
65190;BME280;51777;53.570;9.984;2023-04-03T04:17:54;103119.03;;;1.23;100.00
65190;BME280;51777;53.570;9.984;2023-04-03T04:20:19;103116.50;;;1.21;100.00
65190;BME280;51777;53.570;9.984;2023-04-03T04:22:45;103118.28;;;1.17;100.00
65190;BME280;51777;53.570;9.984;2023-04-03T04:25:10;103118.28;;;1.17;100.00
65190;BME280;51777;53.570;9.984;2023-04-03T04:27:35;103129.41;;;1.13;100.00
65190;BME280;51777;53.570;9.984;2023-04-03T04:30:03;103126.84;;;1.13;100.00
65190;BME280;51777;53.570;9.984;2023-04-03T04:35:03;103128.56;;;1.13;100.00
65190;BME280;51777;53.570;9.984;2023-04-03T04:37:31;103127.72;;;1.12;100.00
65190;BME280;51777;53.570;9.984;2023-04-03T04:39:57;103134.53;;;1.10;100.00
65190;BME280;51777;53.570;9.984;2023-04-03T04:42:22;103137.13;;;1.07;100.00
65190;BME280;51777;53.570;9.984;2023-04-03T04:44:48;103139.72;;;1.06;100.00
65190;BME280;51777;53.570;9.984;2023-04-03T04:47:13;103141.41;;;1.05;100.00
65190;BME280;51777;53.570;9.984;2023-04-03T04:49:39;103140.56;;;1.05;100.00
65190;BME280;51777;53.570;9.984;2023-04-03T04:52:04;103148.25;;;1.03;100.00
65190;BME280;51777;53.570;9.984;2023-04-03T04:54:30;103146.56;;;1.02;100.00
65190;BME280;51777;53.570;9.984;2023-04-03T04:56:55;103150.84;;;1.00;100.00
65190;BME280;51777;53.570;9.984;2023-04-03T04:59:27;103155.06;;;1.01;100.00
65190;BME280;51777;53.570;9.984;2023-04-03T05:01:52;103160.16;;;1.01;100.00
65190;BME280;51777;53.570;9.984;2023-04-03T05:04:18;103155.94;;;1.00;100.00
65190;BME280;51777;53.570;9.984;2023-04-03T05:06:43;103161.03;;;1.00;100.00
65190;BME280;51777;53.570;9.984;2023-04-03T05:09:09;103161.00;;;1.02;100.00
65190;BME280;51777;53.570;9.984;2023-04-03T05:11:35;103164.34;;;1.05;100.00
65190;BME280;51777;53.570;9.984;2023-04-03T05:14:01;103159.22;;;1.07;100.00
65190;BME280;51777;53.570;9.984;2023-04-03T05:16:26;103164.31;;;1.07;100.00
65190;BME280;51777;53.570;9.984;2023-04-03T05:18:51;103160.06;;;1.07;100.00
65190;BME280;51777;53.570;9.984;2023-04-03T05:21:17;103172.75;;;1.12;100.00
65190;BME280;51777;53.570;9.984;2023-04-03T05:23:43;103170.97;;;1.15;100.00
65190;BME280;51777;53.570;9.984;2023-04-03T05:26:09;103176.81;;;1.21;100.00
65190;BME280;51777;53.570;9.984;2023-04-03T05:28:35;103175.03;;;1.27;100.00
65190;BME280;51777;53.570;9.984;2023-04-03T05:31:02;103179.69;;;1.53;100.00
65190;BME280;51777;53.570;9.984;2023-04-03T05:33:27;103181.75;;;1.79;100.00
65190;BME280;51777;53.570;9.984;2023-04-03T05:35:53;103178.28;;;1.82;100.00
65190;BME280;51777;53.570;9.984;2023-04-03T05:38:19;103182.59;;;1.80;100.00
65190;BME280;51777;53.570;9.984;2023-04-03T05:40:45;103179.28;;;1.74;100.00
65190;BME280;51777;53.570;9.984;2023-04-03T05:43:17;103191.13;;;1.79;100.00
65190;BME280;51777;53.570;9.984;2023-04-03T05:45:47;103187.56;;;1.86;100.00
65190;BME280;51777;53.570;9.984;2023-04-03T05:48:12;103186.72;;;1.87;100.00
65190;BME280;51777;53.570;9.984;2023-04-03T05:50:38;103194.31;;;1.90;100.00
65190;BME280;51777;53.570;9.984;2023-04-03T05:53:07;103196.72;;;1.96;100.00
65190;BME280;51777;53.570;9.984;2023-04-03T05:55:34;103196.59;;;2.03;100.00
65190;BME280;51777;53.570;9.984;2023-04-03T05:58:00;103192.16;;;2.13;100.00
65190;BME280;51777;53.570;9.984;2023-04-03T06:00:25;103197.00;;;2.25;100.00
65190;BME280;51777;53.570;9.984;2023-04-03T06:02:50;103190.00;;;2.33;100.00
65190;BME280;51777;53.570;9.984;2023-04-03T06:05:17;103194.97;;;2.41;100.00
65190;BME280;51777;53.570;9.984;2023-04-03T06:07:43;103197.38;;;2.49;100.00
65190;BME280;51777;53.570;9.984;2023-04-03T06:10:11;103198.94;;;2.54;100.00
65190;BME280;51777;53.570;9.984;2023-04-03T06:12:37;103203.81;;;2.65;100.00
65190;BME280;51777;53.570;9.984;2023-04-03T06:15:03;103206.16;;;2.76;100.00
65190;BME280;51777;53.570;9.984;2023-04-03T06:17:29;103205.19;;;2.80;100.00
65190;BME280;51777;53.570;9.984;2023-04-03T06:19:55;103209.34;;;2.85;100.00
65190;BME280;51777;53.570;9.984;2023-04-03T06:22:21;103207.47;;;2.92;100.00
65190;BME280;51777;53.570;9.984;2023-04-03T06:24:46;103206.47;;;2.98;100.00
65190;BME280;51777;53.570;9.984;2023-04-03T06:27:12;103211.41;;;3.05;100.00
65190;BME280;51777;53.570;9.984;2023-04-03T06:29:37;103206.16;;;3.11;100.00
65190;BME280;51777;53.570;9.984;2023-04-03T06:32:03;103214.47;;;3.19;100.00
65190;BME280;51777;53.570;9.984;2023-04-03T06:34:28;103210.00;;;3.29;100.00
65190;BME280;51777;53.570;9.984;2023-04-03T06:36:54;103218.38;;;3.36;100.00
65190;BME280;51777;53.570;9.984;2023-04-03T06:39:21;103217.44;;;3.38;100.00
65190;BME280;51777;53.570;9.984;2023-04-03T06:41:48;103216.38;;;3.45;100.00
65190;BME280;51777;53.570;9.984;2023-04-03T06:44:14;103222.00;;;3.60;100.00
65190;BME280;51777;53.570;9.984;2023-04-03T06:46:41;103219.94;;;3.74;100.00
65190;BME280;51777;53.570;9.984;2023-04-03T06:49:07;103225.06;;;3.74;100.00
65190;BME280;51777;53.570;9.984;2023-04-03T06:51:33;103226.47;;;3.84;100.00
65190;BME280;51777;53.570;9.984;2023-04-03T06:53:59;103231.25;;;3.96;100.00
65190;BME280;51777;53.570;9.984;2023-04-03T06:56:27;103236.06;;;4.08;100.00
65190;BME280;51777;53.570;9.984;2023-04-03T06:58:53;103235.66;;;4.24;100.00
65190;BME280;51777;53.570;9.984;2023-04-03T07:01:24;103236.09;;;4.38;100.00
65190;BME280;51777;53.570;9.984;2023-04-03T07:03:51;103233.53;;;4.38;100.00
65190;BME280;51777;53.570;9.984;2023-04-03T07:06:18;103238.66;;;4.38;100.00
65190;BME280;51777;53.570;9.984;2023-04-03T07:08:46;103241.66;;;4.52;100.00
65190;BME280;51777;53.570;9.984;2023-04-03T07:11:13;103236.84;;;4.69;100.00
65190;BME280;51777;53.570;9.984;2023-04-03T07:13:38;103241.72;;;4.79;100.00
65190;BME280;51777;53.570;9.984;2023-04-03T07:16:05;103243.59;;;4.74;100.00
65190;BME280;51777;53.570;9.984;2023-04-03T07:18:32;103251.69;;;4.88;100.00
65190;BME280;51777;53.570;9.984;2023-04-03T07:20:57;103248.31;;;5.14;100.00
65190;BME280;51777;53.570;9.984;2023-04-03T07:23:23;103252.31;;;5.22;100.00
65190;BME280;51777;53.570;9.984;2023-04-03T07:25:50;103253.25;;;5.20;100.00
65190;BME280;51777;53.570;9.984;2023-04-03T07:28:18;103252.94;;;5.29;100.00
65190;BME280;51777;53.570;9.984;2023-04-03T07:31:10;103258.28;;;5.49;100.00
65190;BME280;51777;53.570;9.984;2023-04-03T07:33:34;103259.09;;;5.76;100.00
65190;BME280;51777;53.570;9.984;2023-04-03T07:36:00;103254.03;;;6.00;100.00
65190;BME280;51777;53.570;9.984;2023-04-03T07:38:25;103261.00;;;5.96;100.00
65190;BME280;51777;53.570;9.984;2023-04-03T07:40:51;103253.00;;;5.54;100.00
65190;BME280;51777;53.570;9.984;2023-04-03T07:43:18;103250.41;;;6.05;100.00
65190;BME280;51777;53.570;9.984;2023-04-03T07:45:46;103253.44;;;5.92;100.00
65190;BME280;51777;53.570;9.984;2023-04-03T07:48:15;103260.91;;;6.23;100.00
65190;BME280;51777;53.570;9.984;2023-04-03T07:50:41;103257.41;;;6.48;100.00
65190;BME280;51777;53.570;9.984;2023-04-03T07:53:07;103258.75;;;6.59;100.00
65190;BME280;51777;53.570;9.984;2023-04-03T07:55:36;103255.28;;;6.60;100.00
65190;BME280;51777;53.570;9.984;2023-04-03T07:58:07;103259.00;;;6.74;100.00
65190;BME280;51777;53.570;9.984;2023-04-03T08:00:33;103260.38;;;6.83;100.00
65190;BME280;51777;53.570;9.984;2023-04-03T08:02:59;103260.53;;;7.00;100.00
65190;BME280;51777;53.570;9.984;2023-04-03T08:05:24;103261.94;;;7.09;100.00
65190;BME280;51777;53.570;9.984;2023-04-03T08:07:50;103259.78;;;7.20;100.00
65190;BME280;51777;53.570;9.984;2023-04-03T08:10:15;103265.28;;;6.89;100.00
65190;BME280;51777;53.570;9.984;2023-04-03T08:12:50;103260.38;;;6.83;100.00
65190;BME280;51777;53.570;9.984;2023-04-03T08:15:16;103268.31;;;6.77;100.00
65190;BME280;51777;53.570;9.984;2023-04-03T08:17:42;103266.16;;;6.88;100.00
65190;BME280;51777;53.570;9.984;2023-04-03T08:20:09;103265.00;;;7.39;100.00
65190;BME280;51777;53.570;9.984;2023-04-03T08:22:35;103268.88;;;7.90;100.00
65190;BME280;51777;53.570;9.984;2023-04-03T08:25:01;103263.69;;;8.29;100.00
65190;BME280;51777;53.570;9.984;2023-04-03T08:27:27;103274.81;;;11.35;100.00
65190;BME280;51777;53.570;9.984;2023-04-03T08:29:54;103298.22;;;15.99;99.37
65190;BME280;51777;53.570;9.984;2023-04-03T08:32:19;103311.75;;;17.24;94.63
65190;BME280;51777;53.570;9.984;2023-04-03T08:34:45;103314.25;;;18.68;94.82
65190;BME280;51777;53.570;9.984;2023-04-03T08:37:11;103314.38;;;22.05;91.21
65190;BME280;51777;53.570;9.984;2023-04-03T08:39:37;103327.00;;;21.93;90.14
65190;BME280;51777;53.570;9.984;2023-04-03T08:42:07;103326.47;;;24.11;90.78
65190;BME280;51777;53.570;9.984;2023-04-03T08:47:11;103347.84;;;27.14;86.79
65190;BME280;51777;53.570;9.984;2023-04-03T08:52:34;103333.22;;;24.98;86.70
65190;BME280;51777;53.570;9.984;2023-04-03T08:55:04;103325.91;;;25.08;88.75
65190;BME280;51777;53.570;9.984;2023-04-03T08:57:41;103332.47;;;25.12;86.65
65190;BME280;51777;53.570;9.984;2023-04-03T09:00:17;103320.69;;;22.70;87.51
65190;BME280;51777;53.570;9.984;2023-04-03T09:02:57;103321.78;;;24.60;86.81
65190;BME280;51777;53.570;9.984;2023-04-03T09:10:33;103314.56;;;20.90;88.84
65190;BME280;51777;53.570;9.984;2023-04-03T09:15:33;103315.28;;;24.40;88.58
65190;BME280;51777;53.570;9.984;2023-04-03T09:18:13;103320.75;;;26.18;85.30
65190;BME280;51777;53.570;9.984;2023-04-03T09:20:45;103318.00;;;25.38;87.16
65190;BME280;51777;53.570;9.984;2023-04-03T09:26:06;103313.44;;;25.61;86.83
65190;BME280;51777;53.570;9.984;2023-04-03T09:28:39;103312.66;;;23.21;86.13
65190;BME280;51777;53.570;9.984;2023-04-03T09:33:45;103299.66;;;21.94;88.09
65190;BME280;51777;53.570;9.984;2023-04-03T09:36:12;103304.72;;;20.74;87.53
65190;BME280;51777;53.570;9.984;2023-04-03T09:38:37;103303.34;;;24.05;87.17
65190;BME280;51777;53.570;9.984;2023-04-03T09:41:17;103304.56;;;23.06;85.11
65190;BME280;51777;53.570;9.984;2023-04-03T09:43:53;103308.34;;;23.99;84.94
65190;BME280;51777;53.570;9.984;2023-04-03T09:46:30;103305.56;;;25.53;85.89
65190;BME280;51777;53.570;9.984;2023-04-03T09:49:01;103314.81;;;26.74;82.93
65190;BME280;51777;53.570;9.984;2023-04-03T09:51:30;103313.78;;;28.61;84.20
65190;BME280;51777;53.570;9.984;2023-04-03T09:53:59;103308.84;;;29.44;83.63
65190;BME280;51777;53.570;9.984;2023-04-03T09:56:29;103308.44;;;28.28;83.35
65190;BME280;51777;53.570;9.984;2023-04-03T10:01:32;103267.44;;;19.60;86.79
65190;BME280;51777;53.570;9.984;2023-04-03T10:04:11;103277.13;;;20.15;87.42
65190;BME280;51777;53.570;9.984;2023-04-03T10:06:52;103275.41;;;22.16;85.76
65190;BME280;51777;53.570;9.984;2023-04-03T10:09:21;103273.03;;;21.97;86.21
65190;BME280;51777;53.570;9.984;2023-04-03T10:12:07;103276.13;;;22.35;85.81
65190;BME280;51777;53.570;9.984;2023-04-03T10:14:39;103270.19;;;22.33;85.35
65190;BME280;51777;53.570;9.984;2023-04-03T10:19:44;103269.22;;;23.95;84.76
65190;BME280;51777;53.570;9.984;2023-04-03T10:25:20;103269.47;;;23.77;83.55
65190;BME280;51777;53.570;9.984;2023-04-03T10:28:01;103268.56;;;23.37;84.18
65190;BME280;51777;53.570;9.984;2023-04-03T10:33:30;103247.19;;;19.71;87.08
65190;BME280;51777;53.570;9.984;2023-04-03T10:36:16;103255.22;;;20.69;86.12
65190;BME280;51777;53.570;9.984;2023-04-03T10:46:49;103243.72;;;21.32;86.53
65190;BME280;51777;53.570;9.984;2023-04-03T10:51:53;103250.75;;;22.42;85.64
65190;BME280;51777;53.570;9.984;2023-04-03T10:56:56;103233.00;;;19.54;87.49
65190;BME280;51777;53.570;9.984;2023-04-03T11:02:07;103228.13;;;18.25;88.13
65190;BME280;51777;53.570;9.984;2023-04-03T11:04:36;103212.06;;;17.99;88.55
65190;BME280;51777;53.570;9.984;2023-04-03T11:07:17;103213.41;;;18.82;88.16
65190;BME280;51777;53.570;9.984;2023-04-03T11:09:46;103212.53;;;19.20;87.44
65190;BME280;51777;53.570;9.984;2023-04-03T11:12:38;103214.88;;;20.43;87.08
65190;BME280;51777;53.570;9.984;2023-04-03T11:15:12;103212.75;;;20.82;86.75
65190;BME280;51777;53.570;9.984;2023-04-03T11:17:52;103191.00;;;19.17;89.22
65190;BME280;51777;53.570;9.984;2023-04-03T11:20:26;103194.28;;;19.75;88.71
65190;BME280;51777;53.570;9.984;2023-04-03T11:25:25;103197.13;;;20.09;88.15
65190;BME280;51777;53.570;9.984;2023-04-03T11:27:57;103200.13;;;20.86;87.69
65190;BME280;51777;53.570;9.984;2023-04-03T11:30:45;103181.59;;;17.27;89.86
65190;BME280;51777;53.570;9.984;2023-04-03T11:33:42;103185.19;;;17.36;90.28
65190;BME280;51777;53.570;9.984;2023-04-03T11:36:13;103184.78;;;17.61;90.84
65190;BME280;51777;53.570;9.984;2023-04-03T11:38:46;103163.38;;;15.54;92.26
65190;BME280;51777;53.570;9.984;2023-04-03T11:41:29;103160.44;;;14.55;93.71
65190;BME280;51777;53.570;9.984;2023-04-03T11:44:25;103162.59;;;15.08;93.48
65190;BME280;51777;53.570;9.984;2023-04-03T11:46:56;103154.19;;;13.85;94.83
65190;BME280;51777;53.570;9.984;2023-04-03T12:14:02;103138.28;;;14.96;93.16
65190;BME280;51777;53.570;9.984;2023-04-03T12:26:48;103129.78;;;16.70;91.12
65190;BME280;51777;53.570;9.984;2023-04-03T12:34:42;103123.13;;;17.08;90.75
65190;BME280;51777;53.570;9.984;2023-04-03T12:40:27;103127.88;;;18.33;89.29
65190;BME280;51777;53.570;9.984;2023-04-03T12:45:46;103121.78;;;17.84;89.43
65190;BME280;51777;53.570;9.984;2023-04-03T12:48:15;103107.25;;;16.58;90.55
65190;BME280;51777;53.570;9.984;2023-04-03T12:50:42;103114.72;;;16.62;90.82
65190;BME280;51777;53.570;9.984;2023-04-03T12:53:21;103104.00;;;15.13;92.55
65190;BME280;51777;53.570;9.984;2023-04-03T12:55:53;103104.91;;;15.91;92.10
65190;BME280;51777;53.570;9.984;2023-04-03T12:58:27;103111.91;;;15.90;91.77
65190;BME280;51777;53.570;9.984;2023-04-03T13:01:13;103104.34;;;15.65;90.58
65190;BME280;51777;53.570;9.984;2023-04-03T13:03:45;103106.50;;;16.14;90.90
65190;BME280;51777;53.570;9.984;2023-04-03T13:06:19;103115.44;;;16.85;90.53
65190;BME280;51777;53.570;9.984;2023-04-03T13:08:50;103118.44;;;16.28;90.63
65190;BME280;51777;53.570;9.984;2023-04-03T13:11:17;103110.84;;;14.33;92.72
65190;BME280;51777;53.570;9.984;2023-04-03T13:14:12;103105.75;;;15.80;91.81
65190;BME280;51777;53.570;9.984;2023-04-03T13:16:39;103107.03;;;17.43;90.50
65190;BME280;51777;53.570;9.984;2023-04-03T13:19:14;103102.63;;;16.82;91.01
65190;BME280;51777;53.570;9.984;2023-04-03T13:21:40;103108.75;;;17.23;89.73
65190;BME280;51777;53.570;9.984;2023-04-03T13:24:06;103109.03;;;16.99;90.11
65190;BME280;51777;53.570;9.984;2023-04-03T13:26:33;103109.53;;;18.71;88.68
65190;BME280;51777;53.570;9.984;2023-04-03T13:29:05;103107.41;;;19.31;89.12
65190;BME280;51777;53.570;9.984;2023-04-03T13:31:33;103109.00;;;19.97;88.61
65190;BME280;51777;53.570;9.984;2023-04-03T13:36:38;103104.03;;;19.49;88.54
65190;BME280;51777;53.570;9.984;2023-04-03T13:41:43;103111.56;;;21.62;87.27
65190;BME280;51777;53.570;9.984;2023-04-03T13:46:46;103097.59;;;19.06;87.56
65190;BME280;51777;53.570;9.984;2023-04-03T13:51:58;103092.97;;;20.62;87.75
65190;BME280;51777;53.570;9.984;2023-04-03T13:54:33;103089.16;;;18.65;87.88
65190;BME280;51777;53.570;9.984;2023-04-03T13:57:00;103083.13;;;20.02;88.20
65190;BME280;51777;53.570;9.984;2023-04-03T13:59:35;103087.97;;;20.50;86.96
65190;BME280;51777;53.570;9.984;2023-04-03T14:07:15;103064.59;;;16.36;88.69
65190;BME280;51777;53.570;9.984;2023-04-03T14:09:43;103064.94;;;16.64;89.81
65190;BME280;51777;53.570;9.984;2023-04-03T14:12:15;103065.13;;;17.23;89.43
65190;BME280;51777;53.570;9.984;2023-04-03T14:14:42;103069.38;;;17.65;88.35
65190;BME280;51777;53.570;9.984;2023-04-03T14:17:16;103070.94;;;17.27;88.91
65190;BME280;51777;53.570;9.984;2023-04-03T14:19:42;103068.09;;;16.79;88.72
65190;BME280;51777;53.570;9.984;2023-04-03T14:24:47;103063.38;;;17.74;87.53
65190;BME280;51777;53.570;9.984;2023-04-03T14:30:27;103065.09;;;20.07;86.41
65190;BME280;51777;53.570;9.984;2023-04-03T14:32:53;103066.28;;;20.48;86.43
65190;BME280;51777;53.570;9.984;2023-04-03T14:35:19;103056.72;;;18.57;88.07
65190;BME280;51777;53.570;9.984;2023-04-03T14:37:48;103061.94;;;19.41;87.34
65190;BME280;51777;53.570;9.984;2023-04-03T14:43:43;103053.81;;;18.60;88.20
65190;BME280;51777;53.570;9.984;2023-04-03T14:46:13;103063.75;;;19.40;87.74
65190;BME280;51777;53.570;9.984;2023-04-03T14:48:39;103063.75;;;21.33;87.01
65190;BME280;51777;53.570;9.984;2023-04-03T14:51:05;103069.47;;;21.87;86.15
65190;BME280;51777;53.570;9.984;2023-04-03T14:53:31;103065.28;;;20.32;86.56
65190;BME280;51777;53.570;9.984;2023-04-03T14:55:58;103055.06;;;19.40;87.93
65190;BME280;51777;53.570;9.984;2023-04-03T14:58:26;103051.28;;;20.23;87.91
65190;BME280;51777;53.570;9.984;2023-04-03T15:00:52;103045.31;;;18.48;88.38
65190;BME280;51777;53.570;9.984;2023-04-03T15:03:20;103048.22;;;17.97;88.96